Terminal Aerodrome Forecast
Issued by NWS Austin/San Antonio, TX

Home | Current Version | Previous Version | Text Only | Print | Product List | Glossary On
Versions: 1 2 3 4 5 6 7 8 9 10 11 12 13 14 15 16 17
000
FTUS44 KEWX 300533
TAFAUS
TAF
KAUS 300533Z 3006/3112 20006KT P6SM FEW070 SCT200
     FM300900 22003KT P6SM FEW013 SCT070
     FM301800 11007KT P6SM SCT070=

USA.gov is the U.S. government's official web portal to all federal, state and local government web resources and services.